Time;durP1;ratioP1;P1;durP2;ratioP2;P2;SDS_P1;SDS_P2;PMS_P1;PMS_P2;Temp;Humidity;BMP_temperature;BMP_pressure;BME280_temperature;BME280_humidity;BME280_pressure;Samples;Min_cycle;Max_cycle;Signal;HPM_P1;HPM_P2
2024/02/25 00:00:14;;;;;;;5.40;4.00;;;;;;;2.97;100.00;152129.03;5071198;28;21064;-77
2024/02/25 00:02:42;;;;;;;7.13;4.37;;;;;;;2.97;100.00;152129.03;5119289;27;20448;-77
2024/02/25 00:05:09;;;;;;;4.90;4.20;;;;;;;2.96;100.00;152126.50;5088737;28;20440;-77
2024/02/25 00:07:36;;;;;;;6.87;4.17;;;;;;;2.96;100.00;152125.19;5088252;28;20517;-77
2024/02/25 00:10:02;;;;;;;3.97;3.57;;;;;;;2.96;100.00;152126.50;5084795;28;20440;-77
2024/02/25 00:12:29;;;;;;;4.77;3.80;;;;;;;2.93;100.00;152117.47;5116616;28;20466;-77
2024/02/25 00:14:55;;;;;;;4.27;3.80;;;;;;;2.91;100.00;152112.34;5087925;28;20457;-77
2024/02/25 00:17:22;;;;;;;4.37;3.50;;;;;;;2.89;100.00;152107.16;5121195;27;20451;-77
2024/02/25 00:19:49;;;;;;;3.87;3.47;;;;;;;2.84;100.00;152094.28;5090377;28;20473;-77
2024/02/25 00:22:16;;;;;;;5.23;3.40;;;;;;;2.84;100.00;152094.28;5088028;28;20521;-77
2024/02/25 00:24:43;;;;;;;4.30;3.70;;;;;;;2.83;100.00;152091.75;5109306;28;20459;-78
2024/02/25 00:27:09;;;;;;;4.47;3.60;;;;;;;2.83;100.00;152093.00;5108425;28;20440;-77
2024/02/25 00:29:35;;;;;;;5.57;3.77;;;;;;;2.81;100.00;152087.84;5107712;28;20826;-77
2024/02/25 00:32:02;;;;;;;3.93;3.10;;;;;;;2.80;100.00;152085.31;5105662;28;20459;-78
2024/02/25 00:34:29;;;;;;;3.83;3.43;;;;;;;2.78;100.00;152078.88;5106183;28;20435;-77
2024/02/25 00:36:56;;;;;;;3.70;3.30;;;;;;;2.76;100.00;152073.72;5099415;28;20498;-78
2024/02/25 00:39:23;;;;;;;3.80;3.00;;;;;;;2.71;100.00;152060.84;5107573;28;20435;-77
2024/02/25 00:41:52;;;;;;;3.80;3.37;;;;;;;2.69;100.00;152057.00;5095694;28;20514;-78
2024/02/25 00:44:19;;;;;;;4.70;3.03;;;;;;;2.67;100.00;152051.88;5095184;28;20447;-77
2024/02/25 00:46:46;;;;;;;4.60;3.27;;;;;;;2.66;100.00;152048.00;5110653;28;20616;-78
2024/02/25 00:49:12;;;;;;;3.87;3.23;;;;;;;2.68;100.00;152053.13;5099678;28;20958;-77
2024/02/25 00:51:39;;;;;;;3.27;2.90;;;;;;;2.64;100.00;152042.84;5088726;28;20452;-77
2024/02/25 00:54:07;;;;;;;3.20;2.90;;;;;;;2.58;100.00;152028.72;5078832;28;20458;-78
2024/02/25 00:56:33;;;;;;;4.63;3.10;;;;;;;2.59;100.00;152030.00;5111159;28;20494;-78
2024/02/25 00:59:00;;;;;;;3.83;3.00;;;;;;;2.56;100.00;152023.56;5098693;28;20852;-77
2024/02/25 01:01:26;;;;;;;3.43;2.93;;;;;;;2.56;100.00;152022.28;5108352;27;20552;-77
2024/02/25 01:03:53;;;;;;;3.87;3.13;;;;;;;2.57;100.00;152024.88;5095779;28;20455;-78
2024/02/25 01:06:19;;;;;;;4.17;3.20;;;;;;;2.57;100.00;152026.13;5107277;28;20800;-78
2024/02/25 01:08:46;;;;;;;3.97;3.20;;;;;;;2.53;100.00;152015.84;5109143;28;20460;-78
2024/02/25 01:11:14;;;;;;;4.40;3.63;;;;;;;2.54;100.00;152017.16;5107590;28;20440;-78
2024/02/25 01:13:40;;;;;;;4.70;3.30;;;;;;;2.50;100.00;152006.84;5100751;28;20447;-77
2024/02/25 01:16:07;;;;;;;3.50;3.20;;;;;;;2.45;100.00;151996.56;5094613;28;20448;-78
2024/02/25 01:18:34;;;;;;;3.83;3.47;;;;;;;2.44;100.00;151993.97;5093324;28;20949;-78
2024/02/25 01:21:01;;;;;;;5.30;3.50;;;;;;;2.43;100.00;151991.44;5094923;28;20467;-78
2024/02/25 01:23:27;;;;;;;4.07;3.67;;;;;;;2.40;100.00;151982.41;5110156;27;20456;-78
2024/02/25 01:25:54;;;;;;;4.50;3.27;;;;;;;2.40;100.00;151983.72;5112831;27;20437;-78
2024/02/25 01:28:22;;;;;;;3.73;2.77;;;;;;;2.40;100.00;151983.72;5109711;28;20456;-78
2024/02/25 01:30:48;;;;;;;4.03;3.63;;;;;;;2.41;100.00;151986.25;5090786;28;20931;-78
2024/02/25 01:33:15;;;;;;;3.87;3.17;;;;;;;2.42;100.00;151988.84;5092942;28;20464;-77
2024/02/25 01:35:41;;;;;;;4.47;3.70;;;;;;;2.41;100.00;151986.25;5090437;28;20445;-78
2024/02/25 01:38:08;;;;;;;3.97;3.57;;;;;;;2.40;100.00;151983.72;5106789;28;20451;-78
2024/02/25 01:40:35;;;;;;;3.60;3.10;;;;;;;2.40;100.00;151983.72;5109586;28;20537;-77
2024/02/25 01:43:09;;;;;;;3.20;2.90;;;;;;;2.42;100.00;151988.84;5065884;28;20467;-78
2024/02/25 01:45:37;;;;;;;4.60;2.83;;;;;;;2.42;100.00;151988.84;5105572;28;20790;-78
2024/02/25 01:48:05;;;;;;;5.70;3.20;;;;;;;2.37;100.00;151974.69;5095619;28;20455;-78
2024/02/25 01:50:32;;;;;;;4.17;3.37;;;;;;;2.35;100.00;151969.56;5106298;28;20914;-77
2024/02/25 01:53:00;;;;;;;3.47;2.63;;;;;;;2.29;100.00;151955.41;5107880;28;20458;-77
2024/02/25 01:55:26;;;;;;;3.87;3.17;;;;;;;2.27;100.00;151948.97;5123544;27;20489;-77
2024/02/25 01:57:54;;;;;;;3.50;2.80;;;;;;;2.24;100.00;151941.25;5093735;28;20456;-77
2024/02/25 02:00:22;;;;;;;3.07;2.70;;;;;;;2.24;100.00;151942.56;5114240;27;20829;-77
2024/02/25 02:02:50;;;;;;;3.80;2.90;;;;;;;2.24;100.00;151942.56;5074470;27;20461;-77
2024/02/25 02:05:16;;;;;;;3.73;3.10;;;;;;;2.27;100.00;151950.28;5091982;28;20436;-77
2024/02/25 02:07:47;;;;;;;3.87;2.80;;;;;;;2.25;100.00;151945.09;5090779;28;21015;-77
2024/02/25 02:10:13;;;;;;;3.13;2.80;;;;;;;2.19;100.00;151929.72;5071230;28;20448;-77
2024/02/25 02:12:41;;;;;;;3.90;3.03;;;;;;;2.18;100.00;151927.13;5114717;27;20505;-77
2024/02/25 02:15:09;;;;;;;3.70;2.57;;;;;;;2.19;100.00;151929.72;5073400;27;20460;-77
2024/02/25 02:17:36;;;;;;;3.27;2.77;;;;;;;2.18;100.00;151927.13;5092976;27;20512;-77
2024/02/25 02:20:16;;;;;;;3.10;2.67;;;;;;;2.18;100.00;151925.81;5102069;27;20465;-77
2024/02/25 02:22:45;;;;;;;3.70;2.90;;;;;;;2.24;100.00;151942.56;5092089;27;20968;-77
2024/02/25 02:25:15;;;;;;;4.20;3.13;;;;;;;2.26;100.00;151947.69;5097669;28;20811;-77
2024/02/25 02:27:42;;;;;;;5.20;3.20;;;;;;;2.27;100.00;151950.28;5095665;27;20542;-77
2024/02/25 02:30:10;;;;;;;5.40;3.23;;;;;;;2.30;100.00;151956.72;5100323;27;20439;-77
2024/02/25 02:32:37;;;;;;;3.03;2.73;;;;;;;2.29;100.00;151955.41;5107976;27;20953;-78
2024/02/25 02:35:05;;;;;;;3.77;3.10;;;;;;;2.30;100.00;151956.72;5122710;27;20451;-77
2024/02/25 02:37:31;;;;;;;3.57;3.13;;;;;;;2.24;100.00;151942.56;5094223;27;20448;-77
2024/02/25 02:39:59;;;;;;;3.40;3.00;;;;;;;2.25;100.00;151943.84;5095797;27;20428;-77
2024/02/25 02:42:26;;;;;;;2.93;2.63;;;;;;;2.23;100.00;151939.97;5105416;27;20456;-78
2024/02/25 02:44:53;;;;;;;3.87;3.10;;;;;;;2.21;100.00;151934.84;5109616;27;20451;-77
2024/02/25 02:47:20;;;;;;;3.00;2.70;;;;;;;2.19;100.00;151929.72;5111872;27;20449;-77
2024/02/25 02:49:47;;;;;;;3.23;2.60;;;;;;;2.19;100.00;151928.41;5110868;27;20457;-77
2024/02/25 02:52:14;;;;;;;3.27;2.80;;;;;;;2.18;100.00;151927.13;5072901;28;20477;-77
2024/02/25 02:54:40;;;;;;;5.00;2.70;;;;;;;2.14;100.00;151916.84;5096672;27;20454;-77
2024/02/25 02:57:08;;;;;;;5.33;3.20;;;;;;;2.13;100.00;151914.25;5128244;27;21004;-77
2024/02/25 02:59:34;;;;;;;3.77;2.97;;;;;;;2.14;100.00;151915.56;5091946;28;20798;-77
2024/02/25 03:02:01;;;;;;;3.57;3.23;;;;;;;2.11;100.00;151907.84;5107302;28;20471;-76
2024/02/25 03:04:28;;;;;;;5.20;3.93;;;;;;;2.06;100.00;151896.28;5097816;28;20451;-76
2024/02/25 03:06:55;;;;;;;4.20;3.70;;;;;;;2.04;100.00;151889.84;5123391;27;20432;-76
2024/02/25 03:09:22;;;;;;;3.77;3.20;;;;;;;2.00;100.00;151879.56;5090366;28;20501;-77
2024/02/25 03:11:48;;;;;;;5.43;3.70;;;;;;;1.96;100.00;151870.53;5107474;28;20452;-76
2024/02/25 03:14:16;;;;;;;3.93;3.30;;;;;;;2.00;100.00;151879.56;5107761;28;20925;-76
2024/02/25 03:16:43;;;;;;;5.00;3.70;;;;;;;2.04;100.00;151891.09;5088596;28;20770;-77
2024/02/25 03:19:09;;;;;;;3.63;3.30;;;;;;;2.07;100.00;151897.53;5108751;28;20966;-76
2024/02/25 03:21:42;;;;;;;4.57;3.73;;;;;;;2.06;100.00;151896.28;5097162;28;20521;-76
2024/02/25 03:24:09;;;;;;;4.30;3.37;;;;;;;2.05;100.00;151893.69;5100581;27;20475;-77
2024/02/25 03:26:36;;;;;;;4.20;3.70;;;;;;;2.02;100.00;151885.97;5094313;28;20913;-76
2024/02/25 03:29:03;;;;;;;3.50;3.10;;;;;;;2.01;100.00;151882.13;5108104;28;20448;-77
2024/02/25 03:31:31;;;;;;;4.27;3.50;;;;;;;2.00;100.00;151879.56;5087851;28;20435;-77
2024/02/25 03:33:57;;;;;;;5.33;3.83;;;;;;;2.00;100.00;151880.84;5108315;28;21017;-77
2024/02/25 03:36:24;;;;;;;4.13;3.73;;;;;;;1.98;100.00;151875.72;5105826;28;20448;-76
2024/02/25 03:38:51;;;;;;;5.70;3.97;;;;;;;2.04;100.00;151889.84;5079592;28;20781;-77
2024/02/25 03:41:18;;;;;;;4.87;4.27;;;;;;;2.06;100.00;151896.28;5082958;28;20515;-76
2024/02/25 03:43:44;;;;;;;4.87;4.10;;;;;;;2.10;100.00;151906.53;5102494;28;20494;-76
2024/02/25 03:46:10;;;;;;;5.83;3.90;;;;;;;2.11;100.00;151909.13;5106710;28;20452;-76
2024/02/25 03:48:37;;;;;;;5.80;4.40;;;;;;;2.10;100.00;151906.53;5102206;28;21015;-76
2024/02/25 03:51:04;;;;;;;4.80;4.20;;;;;;;2.11;100.00;151909.13;5100243;28;20200;-76
2024/02/25 03:53:31;;;;;;;6.70;3.90;;;;;;;2.10;100.00;151906.53;5105468;28;20992;-76
2024/02/25 03:55:58;;;;;;;4.60;3.67;;;;;;;2.11;100.00;151907.84;5096916;28;20930;-76
2024/02/25 03:58:25;;;;;;;5.10;4.20;;;;;;;2.14;100.00;151915.56;5078875;28;20559;-77
2024/02/25 04:00:51;;;;;;;6.80;4.27;;;;;;;2.15;100.00;151919.41;5092059;28;20557;-77
2024/02/25 04:03:18;;;;;;;4.17;3.70;;;;;;;2.14;100.00;151915.56;5097804;28;20455;-76
2024/02/25 04:05:46;;;;;;;5.50;3.70;;;;;;;2.13;100.00;151912.97;5125259;27;20448;-77
2024/02/25 04:08:12;;;;;;;3.50;3.20;;;;;;;2.10;100.00;151906.53;5123488;27;20436;-76
2024/02/25 04:10:38;;;;;;;4.90;4.00;;;;;;;2.11;100.00;151909.13;5075716;28;20965;-76
2024/02/25 04:13:05;;;;;;;4.10;3.50;;;;;;;2.15;100.00;151919.41;5105556;28;20452;-76
2024/02/25 04:15:32;;;;;;;3.77;2.93;;;;;;;2.16;100.00;151920.69;5084898;28;20884;-76
2024/02/25 04:17:58;;;;;;;5.53;3.80;;;;;;;2.16;100.00;151921.97;5108214;27;20455;-77
2024/02/25 04:20:25;;;;;;;5.10;3.63;;;;;;;2.17;100.00;151923.28;5106590;27;20448;-76
2024/02/25 04:22:53;;;;;;;7.90;3.43;;;;;;;2.18;100.00;151927.13;5110310;28;20536;-77
2024/02/25 04:25:19;;;;;;;4.83;3.50;;;;;;;2.22;100.00;151937.44;5092060;27;20456;-76
2024/02/25 04:27:46;;;;;;;4.20;3.07;;;;;;;2.24;100.00;151941.25;5104013;27;20467;-76
2024/02/25 04:30:13;;;;;;;4.90;3.60;;;;;;;2.28;100.00;151952.81;5111123;28;20436;-76
2024/02/25 04:32:43;;;;;;;4.07;3.43;;;;;;;2.30;100.00;151957.94;5103667;28;20518;-76
2024/02/25 04:35:10;;;;;;;4.40;3.40;;;;;;;2.26;100.00;151946.41;5110617;28;20963;-77
2024/02/25 04:37:36;;;;;;;4.53;3.70;;;;;;;2.24;100.00;151942.56;5108615;27;20662;-76
2024/02/25 04:40:06;;;;;;;4.70;3.73;;;;;;;2.22;100.00;151936.13;5092948;28;20439;-76
2024/02/25 04:42:33;;;;;;;4.20;3.37;;;;;;;2.21;100.00;151934.84;5087975;28;20472;-76
2024/02/25 04:44:59;;;;;;;5.50;3.80;;;;;;;2.18;100.00;151925.81;5108894;27;20435;-77
2024/02/25 04:47:26;;;;;;;3.90;3.10;;;;;;;2.19;100.00;151928.41;5101191;28;20446;-76
2024/02/25 04:49:52;;;;;;;4.90;3.27;;;;;;;2.19;100.00;151928.41;5111336;28;20432;-76
2024/02/25 04:52:20;;;;;;;3.60;2.93;;;;;;;2.20;100.00;151932.25;5079012;28;20883;-76
2024/02/25 04:54:47;;;;;;;4.80;3.50;;;;;;;2.22;100.00;151937.44;5097172;28;20463;-76
2024/02/25 04:57:15;;;;;;;3.20;2.87;;;;;;;2.22;100.00;151937.44;5092448;28;20452;-76
2024/02/25 04:59:42;;;;;;;3.17;2.80;;;;;;;2.21;100.00;151933.53;5093249;28;20432;-76
2024/02/25 05:02:08;;;;;;;4.83;3.80;;;;;;;2.22;100.00;151937.44;5111713;28;20546;-76
2024/02/25 05:04:35;;;;;;;4.20;3.60;;;;;;;2.26;100.00;151946.41;5091366;28;20462;-76
2024/02/25 05:07:02;;;;;;;4.00;3.20;;;;;;;2.29;100.00;151955.41;5087970;28;20474;-76
2024/02/25 05:09:28;;;;;;;3.90;3.37;;;;;;;2.31;100.00;151960.53;5097240;28;20501;-77
2024/02/25 05:11:55;;;;;;;3.47;3.13;;;;;;;2.30;100.00;151956.72;5093861;28;20939;-76
2024/02/25 05:14:23;;;;;;;3.80;3.47;;;;;;;2.28;100.00;151951.53;5110246;28;20448;-76
2024/02/25 05:16:51;;;;;;;3.73;3.00;;;;;;;2.25;100.00;151945.09;5087038;28;20823;-77
2024/02/25 05:19:17;;;;;;;4.83;3.50;;;;;;;2.30;100.00;151956.72;5120136;27;20451;-76
2024/02/25 05:21:44;;;;;;;4.40;3.43;;;;;;;2.31;100.00;151960.53;5088658;28;20695;-76
2024/02/25 05:24:11;;;;;;;4.07;3.23;;;;;;;2.31;100.00;151960.53;5088023;28;20463;-76
2024/02/25 05:26:38;;;;;;;4.20;3.20;;;;;;;2.31;100.00;151960.53;5112299;27;20448;-77
2024/02/25 05:29:04;;;;;;;4.27;3.87;;;;;;;2.36;100.00;151973.41;5086261;28;20464;-77
2024/02/25 05:31:32;;;;;;;4.47;3.77;;;;;;;2.36;100.00;151973.41;5089326;28;20455;-76
2024/02/25 05:33:59;;;;;;;3.90;3.50;;;;;;;2.35;100.00;151970.84;5088263;28;20587;-77
2024/02/25 05:36:25;;;;;;;3.70;3.33;;;;;;;2.33;100.00;151964.44;5089374;28;20448;-76
2024/02/25 05:38:52;;;;;;;3.80;3.40;;;;;;;2.32;100.00;151963.13;5099992;28;20456;-76
2024/02/25 05:41:19;;;;;;;4.60;3.57;;;;;;;2.28;100.00;151951.53;5107280;27;20978;-76
2024/02/25 05:43:46;;;;;;;4.00;3.43;;;;;;;2.25;100.00;151943.84;5088406;28;20463;-76
2024/02/25 05:46:13;;;;;;;4.50;3.80;;;;;;;2.26;100.00;151946.41;5096468;28;20443;-76
2024/02/25 05:48:41;;;;;;;4.60;3.40;;;;;;;2.23;100.00;151939.97;5097098;28;20452;-76
2024/02/25 05:51:07;;;;;;;4.60;3.33;;;;;;;2.21;100.00;151934.84;5109615;28;20528;-76
2024/02/25 05:53:34;;;;;;;4.00;3.57;;;;;;;2.19;100.00;151929.72;5092782;28;21110;-77
2024/02/25 05:56:00;;;;;;;3.50;2.70;;;;;;;2.19;100.00;151929.72;5076132;28;20444;-76
2024/02/25 05:58:27;;;;;;;3.67;3.37;;;;;;;2.16;100.00;151921.97;5110101;28;20448;-77
2024/02/25 06:00:54;;;;;;;4.20;3.27;;;;;;;2.16;100.00;151920.69;5105100;28;20541;-76
2024/02/25 06:03:20;;;;;;;3.63;3.30;;;;;;;2.16;100.00;151920.69;5080833;28;21178;-76
2024/02/25 06:05:48;;;;;;;4.50;3.40;;;;;;;2.18;100.00;151927.13;5097642;28;20980;-76
2024/02/25 06:08:15;;;;;;;3.87;3.47;;;;;;;2.17;100.00;151923.28;5095280;28;20509;-77
2024/02/25 06:10:41;;;;;;;3.90;3.40;;;;;;;2.16;100.00;151920.69;5097738;28;20471;-77
2024/02/25 06:13:08;;;;;;;3.30;3.00;;;;;;;2.16;100.00;151921.97;5097958;28;20470;-76
2024/02/25 06:15:35;;;;;;;3.70;3.30;;;;;;;2.09;100.00;151903.94;5082371;28;20444;-76
2024/02/25 06:18:01;;;;;;;3.97;3.20;;;;;;;2.05;100.00;151893.69;5098140;28;20449;-76
2024/02/25 06:20:28;;;;;;;3.77;3.37;;;;;;;2.00;100.00;151880.84;5101333;28;20637;-76
2024/02/25 06:22:55;;;;;;;6.30;3.93;;;;;;;1.92;100.00;151860.28;5081895;28;20552;-76
2024/02/25 06:25:22;;;;;;;3.80;3.50;;;;;;;1.87;100.00;151846.13;5063651;28;21181;-76
2024/02/25 06:27:48;;;;;;;4.20;3.73;;;;;;;1.87;100.00;151846.13;5096486;28;20464;-76
2024/02/25 06:30:15;;;;;;;5.00;4.50;;;;;;;1.83;100.00;151837.13;5080705;28;20456;-76
2024/02/25 06:32:43;;;;;;;5.37;4.10;;;;;;;1.84;100.00;151839.72;5065005;28;20476;-76
2024/02/25 06:35:12;;;;;;;5.80;4.70;;;;;;;1.86;100.00;151844.84;5069484;28;20460;-75
2024/02/25 06:37:38;;;;;;;5.20;4.20;;;;;;;1.89;100.00;151852.56;5083644;28;20461;-75
2024/02/25 06:40:08;;;;;;;5.30;4.60;;;;;;;1.93;100.00;151861.56;5095630;28;20442;-76
2024/02/25 06:42:34;;;;;;;5.67;4.43;;;;;;;2.03;100.00;151887.25;5093268;28;21011;-75
2024/02/25 06:45:01;;;;;;;5.43;4.20;;;;;;;2.13;100.00;151912.97;5077440;28;20444;-76
2024/02/25 06:47:28;;;;;;;5.17;4.60;;;;;;;2.21;100.00;151934.84;5088207;28;20505;-75
2024/02/25 06:49:54;;;;;;;4.77;4.37;;;;;;;2.36;100.00;151973.41;5095047;28;20456;-76
2024/02/25 06:52:21;;;;;;;4.70;4.30;;;;;;;2.53;100.00;152014.56;5068267;28;20460;-76
2024/02/25 06:54:48;;;;;;;5.03;4.53;;;;;;;2.67;100.00;152051.88;5085567;28;20461;-76
2024/02/25 06:57:17;;;;;;;5.00;4.07;;;;;;;2.79;100.00;152081.44;5078479;28;20452;-76
2024/02/25 06:59:44;;;;;;;4.30;3.90;;;;;;;2.96;100.00;152125.19;5097138;27;20486;-76
2024/02/25 07:02:10;;;;;;;4.47;3.37;;;;;;;3.15;100.00;152174.03;5102971;27;20488;-76
2024/02/25 07:04:37;;;;;;;4.87;3.80;;;;;;;3.33;100.00;152220.41;5098689;27;20459;-75
2024/02/25 07:07:04;;;;;;;4.43;4.00;;;;;;;3.50;100.00;152264.16;5085509;27;20454;-75
2024/02/25 07:09:32;;;;;;;4.90;4.40;;;;;;;3.74;100.00;152324.66;5095748;27;20452;-76
2024/02/25 07:11:58;;;;;;;5.50;4.50;;;;;;;3.97;100.00;152383.88;5095915;27;20551;-75
2024/02/25 07:14:28;;;;;;;5.73;4.73;;;;;;;4.18;100.00;152436.72;5115252;27;20455;-76
2024/02/25 07:16:54;;;;;;;4.77;4.17;;;;;;;4.44;100.00;152503.69;5112555;27;20459;-76
2024/02/25 07:19:21;;;;;;;3.90;3.50;;;;;;;4.76;100.00;152586.16;5108699;27;20483;-76
2024/02/25 07:21:47;;;;;;;4.20;3.03;;;;;;;5.11;100.00;152673.78;5097920;27;20471;-76
2024/02/25 07:24:22;;;;;;;3.00;2.60;;;;;;;5.42;100.00;152753.69;5077683;27;20467;-76
2024/02/25 07:26:50;;;;;;;2.67;2.27;;;;;;;5.77;97.96;152842.69;5127398;27;20438;-77
2024/02/25 07:29:17;;;;;;;2.83;2.30;;;;;;;5.92;95.77;152882.69;5116679;27;20540;-77
2024/02/25 07:31:45;;;;;;;2.40;2.20;;;;;;;5.81;93.99;152854.28;5132042;27;20440;-76
2024/02/25 07:34:11;;;;;;;3.70;2.60;;;;;;;5.63;93.29;152806.56;5110720;27;20451;-77
2024/02/25 07:36:39;;;;;;;3.67;2.50;;;;;;;5.46;93.12;152764.00;5113346;27;20467;-77
2024/02/25 07:39:06;;;;;;;3.20;2.27;;;;;;;5.22;93.07;152702.09;5113085;27;20447;-76
2024/02/25 07:41:33;;;;;;;2.67;2.17;;;;;;;5.08;93.59;152666.03;5095071;27;20447;-77
2024/02/25 07:43:59;;;;;;;3.13;2.40;;;;;;;4.93;93.92;152629.94;5112348;27;20997;-76
2024/02/25 07:46:27;;;;;;;2.17;1.97;;;;;;;4.88;94.27;152617.06;5080342;28;20509;-88
2024/02/25 07:48:55;;;;;;;2.73;2.20;;;;;;;4.83;95.31;152604.16;5083465;28;20456;-87
2024/02/25 07:51:22;;;;;;;3.50;2.50;;;;;;;4.81;95.90;152599.03;5078926;27;20544;-87
2024/02/25 07:53:49;;;;;;;2.43;2.10;;;;;;;4.80;96.07;152596.44;5087316;27;20927;-88
2024/02/25 07:56:20;;;;;;;2.57;2.20;;;;;;;4.79;96.05;152593.84;5071510;27;21028;-87
2024/02/25 07:58:47;;;;;;;2.53;2.30;;;;;;;4.78;95.98;152591.28;5103285;28;20448;-87
2024/02/25 08:01:14;;;;;;;3.43;2.40;;;;;;;4.87;96.48;152614.47;5125233;27;20479;-87
2024/02/25 08:03:40;;;;;;;2.63;2.40;;;;;;;5.11;96.40;152673.78;5109921;27;20843;-86
2024/02/25 08:06:08;;;;;;;2.70;2.23;;;;;;;5.23;95.45;152706.00;5093068;28;20447;-85
2024/02/25 08:08:34;;;;;;;3.13;2.10;;;;;;;5.20;95.44;152696.94;5110499;27;20451;-86
2024/02/25 08:11:01;;;;;;;2.97;2.50;;;;;;;5.18;95.30;152691.81;5114432;27;20462;-77
2024/02/25 08:13:30;;;;;;;5.03;2.50;;;;;;;5.11;94.56;152673.78;5127048;27;20529;-77
2024/02/25 08:15:57;;;;;;;2.70;1.93;;;;;;;5.07;95.03;152663.44;5083228;28;21034;-77
2024/02/25 08:18:23;;;;;;;2.90;2.50;;;;;;;4.96;95.27;152636.38;5112492;28;20555;-86
2024/02/25 08:20:50;;;;;;;3.03;2.20;;;;;;;4.93;95.68;152629.94;5098798;28;20455;-86
2024/02/25 08:23:18;;;;;;;3.00;2.03;;;;;;;4.93;95.52;152629.94;5077138;28;20488;-85
2024/02/25 08:25:45;;;;;;;2.67;1.93;;;;;;;4.92;95.47;152626.09;5103744;28;20469;-85
2024/02/25 08:28:12;;;;;;;3.03;2.20;;;;;;;4.97;95.93;152637.69;5095815;28;20882;-87
2024/02/25 08:30:38;;;;;;;3.03;2.00;;;;;;;5.04;96.19;152657.00;5083418;28;20475;-85
2024/02/25 08:33:05;;;;;;;2.00;1.50;;;;;;;5.11;95.71;152673.78;5102731;28;20459;-87
2024/02/25 08:35:32;;;;;;;2.83;2.47;;;;;;;5.11;96.09;152673.78;5110782;28;20965;-76
2024/02/25 08:37:58;;;;;;;2.90;1.80;;;;;;;5.17;95.48;152689.22;5105254;28;20532;-76
2024/02/25 08:40:27;;;;;;;3.20;2.20;;;;;;;5.23;95.06;152704.69;5128848;27;20448;-88
2024/02/25 08:42:54;;;;;;;3.13;2.23;;;;;;;5.26;95.02;152713.75;5096809;28;20480;-88
2024/02/25 08:45:22;;;;;;;2.20;1.73;;;;;;;5.31;94.29;152726.63;5109195;28;20479;-88
2024/02/25 08:47:49;;;;;;;2.87;1.83;;;;;;;5.38;94.47;152744.66;5094165;28;20496;-77
2024/02/25 08:50:16;;;;;;;2.27;1.90;;;;;;;5.41;95.09;152752.41;5093531;28;20553;-76
2024/02/25 08:52:42;;;;;;;2.07;1.67;;;;;;;5.42;94.70;152753.69;5080026;28;20444;-77
2024/02/25 08:55:09;;;;;;;3.50;2.23;;;;;;;5.48;93.41;152770.44;5107251;28;20456;-76
2024/02/25 08:57:37;;;;;;;2.03;1.70;;;;;;;5.55;94.10;152787.22;5096332;28;20556;-77
2024/02/25 09:00:07;;;;;;;3.10;2.10;;;;;;;5.61;94.08;152802.72;5105210;28;20486;-76
2024/02/25 09:02:34;;;;;;;2.37;1.87;;;;;;;5.71;93.52;152828.47;5111104;28;20583;-76
2024/02/25 09:05:00;;;;;;;2.67;1.70;;;;;;;5.77;93.48;152843.94;5084471;27;20460;-76
2024/02/25 09:07:28;;;;;;;2.37;2.00;;;;;;;5.83;92.76;152858.13;5102013;27;20897;-76
2024/02/25 09:09:54;;;;;;;2.90;2.17;;;;;;;5.89;92.34;152874.97;5116477;27;20447;-76
2024/02/25 09:12:21;;;;;;;2.30;2.07;;;;;;;5.91;92.37;152878.81;5118102;27;20458;-77
2024/02/25 09:14:49;;;;;;;2.50;1.80;;;;;;;5.94;91.01;152886.56;5120459;27;20443;-76
2024/02/25 09:17:15;;;;;;;2.30;1.50;;;;;;;5.98;91.03;152896.91;5117046;27;20447;-77
2024/02/25 09:19:42;;;;;;;2.13;1.43;;;;;;;6.00;91.58;152903.34;5118758;27;20463;-76
2024/02/25 09:22:08;;;;;;;1.97;1.30;;;;;;;6.06;90.98;152918.78;5098643;27;20506;-77
2024/02/25 09:24:35;;;;;;;1.77;1.33;;;;;;;6.16;90.11;152942.03;5099509;27;20469;-77
2024/02/25 09:27:03;;;;;;;1.50;1.20;;;;;;;6.21;89.76;152954.94;5116384;27;20443;-77
2024/02/25 09:29:29;;;;;;;2.60;1.87;;;;;;;6.31;89.13;152980.72;5100440;27;20445;-77
2024/02/25 09:31:57;;;;;;;1.90;1.37;;;;;;;6.39;88.55;153001.38;5122420;27;20450;-88
2024/02/25 09:34:24;;;;;;;1.80;1.43;;;;;;;6.47;88.23;153023.31;5115401;27;20890;-88
2024/02/25 09:36:51;;;;;;;1.70;1.47;;;;;;;6.56;87.58;153045.25;5113949;27;20617;-88
2024/02/25 09:39:18;;;;;;;1.93;1.60;;;;;;;6.61;87.63;153058.16;5107691;28;20448;-88
2024/02/25 09:41:44;;;;;;;2.47;1.50;;;;;;;6.66;87.48;153071.06;5096361;28;20920;-88
2024/02/25 09:44:16;;;;;;;1.73;1.00;;;;;;;6.70;86.53;153082.66;5113002;27;20839;-87
2024/02/25 09:46:43;;;;;;;1.60;1.27;;;;;;;6.82;86.05;153111.06;5088964;28;20432;-87
2024/02/25 09:49:11;;;;;;;1.90;1.50;;;;;;;6.86;86.54;153121.44;5118219;27;20542;-87
2024/02/25 09:51:39;;;;;;;1.80;1.33;;;;;;;6.84;86.05;153117.53;5111127;27;20439;-76
2024/02/25 09:54:06;;;;;;;2.00;1.30;;;;;;;6.89;84.90;153130.44;5104379;27;20457;-76
2024/02/25 09:56:32;;;;;;;3.03;1.50;;;;;;;6.95;85.64;153145.94;5117969;27;20475;-76
2024/02/25 09:58:59;;;;;;;1.33;1.00;;;;;;;7.02;84.12;153164.00;5114846;27;20605;-76
2024/02/25 10:01:26;;;;;;;1.67;1.10;;;;;;;7.15;84.72;153196.25;5090314;27;20482;-76
2024/02/25 10:03:52;;;;;;;2.10;1.13;;;;;;;7.19;84.33;153207.91;5119493;27;20540;-76
2024/02/25 10:06:20;;;;;;;2.07;1.27;;;;;;;7.30;82.53;153235.03;5106481;27;20460;-76
2024/02/25 10:08:47;;;;;;;1.83;0.90;;;;;;;7.44;82.39;153269.91;5106625;27;20771;-76
2024/02/25 10:11:14;;;;;;;1.67;0.90;;;;;;;7.49;81.28;153282.81;5133765;27;20455;-77
2024/02/25 10:13:42;;;;;;;1.20;0.90;;;;;;;7.56;79.80;153300.88;5099486;27;20924;-76
2024/02/25 10:19:33;;;;;;;1.13;0.80;;;;;;;7.69;77.38;153334.47;4949851;28;20471;-77
2024/02/25 10:22:10;;;;;;;1.10;0.73;;;;;;;7.78;78.52;153357.72;5105316;27;20455;-77
2024/02/25 10:24:37;;;;;;;1.30;0.80;;;;;;;7.79;76.09;153360.28;5100164;27;20558;-76
2024/02/25 10:27:10;;;;;;;1.00;0.60;;;;;;;7.82;75.63;153368.03;5082180;27;20451;-76
2024/02/25 10:29:51;;;;;;;1.20;0.80;;;;;;;7.88;74.02;153383.56;5118567;27;20983;-76
2024/02/25 10:32:22;;;;;;;1.10;0.70;;;;;;;7.87;75.35;153382.25;5117274;27;20567;-76
2024/02/25 10:34:49;;;;;;;1.80;0.93;;;;;;;7.85;74.25;153375.81;5130450;27;20443;-76
2024/02/25 10:37:20;;;;;;;1.57;1.00;;;;;;;7.89;76.78;153386.13;5082260;27;20468;-77
2024/02/25 10:39:47;;;;;;;1.00;0.60;;;;;;;7.81;76.06;153365.50;5116810;27;20450;-77
2024/02/25 10:42:15;;;;;;;1.47;0.60;;;;;;;7.77;72.28;153355.13;5117513;27;20459;-75
2024/02/25 10:44:42;;;;;;;1.20;0.60;;;;;;;7.84;74.35;153373.19;5115070;27;20474;-76
2024/02/25 10:47:15;;;;;;;1.50;0.60;;;;;;;7.86;75.61;153379.66;5118874;27;21038;-76
2024/02/25 10:49:42;;;;;;;1.30;0.63;;;;;;;7.85;73.90;153377.09;5114470;27;20458;-76
2024/02/25 10:52:09;;;;;;;1.27;0.60;;;;;;;7.83;71.41;153370.66;5096599;27;20532;-76
2024/02/25 10:54:38;;;;;;;1.40;0.70;;;;;;;7.86;71.10;153378.41;5100148;27;20451;-76
2024/02/25 10:57:04;;;;;;;1.00;0.50;;;;;;;7.86;73.54;153379.66;5083609;27;20809;-77
2024/02/25 10:59:31;;;;;;;1.17;0.63;;;;;;;7.85;70.50;153375.81;5099632;27;20459;-77
2024/02/25 11:01:59;;;;;;;0.80;0.60;;;;;;;7.99;68.62;153412.00;5099461;27;20487;-76
2024/02/25 11:04:26;;;;;;;0.90;0.40;;;;;;;8.03;69.27;153421.00;5115844;27;21048;-76
2024/02/25 11:06:55;;;;;;;1.67;0.90;;;;;;;8.05;69.21;153427.47;5117613;27;20443;-76
2024/02/25 11:09:24;;;;;;;3.57;3.00;;;;;;;8.03;72.48;153421.00;5096279;27;20455;-76
2024/02/25 11:12:16;;;;;;;1.47;0.70;;;;;;;7.97;71.88;153406.78;5116971;27;20620;-76
2024/02/25 11:14:48;;;;;;;1.53;0.70;;;;;;;7.99;67.27;153413.25;5132345;27;20436;-76
2024/02/25 11:17:15;;;;;;;1.10;0.50;;;;;;;8.17;66.02;153458.50;5099572;27;20466;-77
2024/02/25 11:19:42;;;;;;;1.40;1.10;;;;;;;8.25;67.94;153477.88;5128655;27;20561;-76
2024/02/25 11:22:09;;;;;;;2.10;1.50;;;;;;;8.29;68.45;153489.56;5111140;27;20467;-76
2024/02/25 11:24:45;;;;;;;2.50;0.70;;;;;;;8.27;65.78;153484.41;5097139;27;21065;-76
2024/02/25 11:27:13;;;;;;;1.50;1.27;;;;;;;8.27;67.78;153483.09;5097013;28;20458;-77
2024/02/25 11:29:40;;;;;;;1.40;1.00;;;;;;;8.23;70.07;153474.03;5080613;27;20807;-76
2024/02/25 11:32:07;;;;;;;1.90;1.20;;;;;;;8.25;65.41;153477.88;5117781;27;20520;-76